Time;durP1;ratioP1;P1;durP2;ratioP2;P2;SDS_P1;SDS_P2;PMS_P1;PMS_P2;Temp;Humidity;BMP_temperature;BMP_pressure;BME280_temperature;BME280_humidity;BME280_pressure;Samples;Min_cycle;Max_cycle;Signal;HPM_P1;HPM_P2
2023/04/01 00:01:54;;;;;;;0.90;0.30;;;20.00;61.60;;;;;;4919478;29;20040;-60
2023/04/01 00:04:20;;;;;;;2.60;0.40;;;20.00;61.60;;;;;;4918598;29;20044;-60
2023/04/01 00:06:47;;;;;;;1.92;0.40;;;19.90;61.40;;;;;;4918809;29;20055;-60
2023/04/01 00:09:13;;;;;;;2.85;0.40;;;19.90;61.50;;;;;;4918707;29;20132;-60
2023/04/01 00:11:39;;;;;;;2.15;0.40;;;19.90;61.50;;;;;;4918624;29;20512;-60
2023/04/01 00:14:05;;;;;;;1.83;0.50;;;19.90;61.50;;;;;;4901910;29;20051;-60
2023/04/01 00:16:30;;;;;;;1.95;0.40;;;19.90;61.50;;;;;;4918780;29;20047;-60
2023/04/01 00:18:56;;;;;;;1.58;0.30;;;19.90;61.50;;;;;;4918474;29;20091;-60
2023/04/01 00:21:22;;;;;;;0.95;0.30;;;19.90;61.50;;;;;;4918270;29;20059;-60
2023/04/01 00:23:51;;;;;;;1.90;0.30;;;19.90;61.50;;;;;;4918885;29;20515;-60
2023/04/01 00:26:18;;;;;;;1.95;0.45;;;19.90;61.50;;;;;;4918192;29;20062;-61
2023/04/01 00:28:44;;;;;;;1.92;0.30;;;19.90;61.50;;;;;;4918983;29;20055;-60
2023/04/01 00:31:10;;;;;;;1.30;0.30;;;19.90;61.50;;;;;;4918175;29;20044;-61
2023/04/01 00:33:36;;;;;;;1.80;0.40;;;19.90;61.50;;;;;;4918208;29;20136;-60
2023/04/01 00:36:16;;;;;;;1.45;0.57;;;19.90;61.50;;;;;;4901396;29;20041;-60
2023/04/01 00:38:42;;;;;;;0.95;0.30;;;19.90;61.40;;;;;;4918535;29;20052;-60
2023/04/01 00:41:08;;;;;;;1.20;0.30;;;19.90;61.50;;;;;;4917931;29;20048;-61
2023/04/01 00:43:34;;;;;;;1.30;0.38;;;19.90;61.50;;;;;;4918635;29;20056;-60
2023/04/01 00:45:59;;;;;;;0.77;0.30;;;19.80;61.40;;;;;;4901344;29;20201;-60
2023/04/01 00:48:31;;;;;;;1.48;0.40;;;19.80;61.40;;;;;;4918045;29;20092;-60
2023/04/01 00:51:02;;;;;;;0.80;0.30;;;19.80;61.40;;;;;;4902142;29;20092;-60
2023/04/01 00:53:28;;;;;;;2.42;0.40;;;19.80;61.50;;;;;;4900599;29;20500;-60
2023/04/01 00:56:17;;;;;;;1.77;0.30;;;19.80;61.40;;;;;;4900592;29;20112;-60
2023/04/01 00:58:46;;;;;;;0.80;0.40;;;19.80;61.40;;;;;;4918055;29;20052;-60
2023/04/01 01:01:11;;;;;;;1.10;0.30;;;19.80;61.50;;;;;;4917097;29;20456;-60
2023/04/01 01:03:37;;;;;;;2.47;0.38;;;19.80;61.50;;;;;;4901447;29;20126;-60
2023/04/01 01:06:23;;;;;;;3.20;0.45;;;19.80;61.50;;;;;;4917626;29;20112;-60
2023/04/01 01:08:49;;;;;;;1.08;0.30;;;19.80;61.50;;;;;;4917762;29;20044;-60
2023/04/01 01:11:14;;;;;;;1.08;0.50;;;19.80;61.50;;;;;;4917741;29;20104;-60
2023/04/01 01:13:53;;;;;;;1.77;0.40;;;19.80;61.50;;;;;;4885330;29;20139;-60
2023/04/01 01:16:24;;;;;;;2.13;0.30;;;19.80;61.50;;;;;;4917199;29;20492;-60
2023/04/01 01:19:13;;;;;;;0.70;0.30;;;19.70;61.40;;;;;;4901043;29;20630;-60
2023/04/01 01:21:53;;;;;;;0.88;0.30;;;19.70;61.40;;;;;;4881529;29;20449;-60
2023/04/01 01:24:46;;;;;;;3.78;0.60;;;19.70;61.40;;;;;;4917400;29;20396;-60
2023/04/01 01:27:13;;;;;;;0.70;0.30;;;19.70;61.30;;;;;;4901469;29;20484;-61
2023/04/01 01:29:59;;;;;;;0.70;0.33;;;19.80;61.40;;;;;;4900528;29;20498;-60
2023/04/01 01:32:31;;;;;;;1.30;0.30;;;19.70;61.40;;;;;;4900639;29;20558;-60
2023/04/01 01:35:27;;;;;;;0.70;0.47;;;19.70;61.40;;;;;;4901000;29;20079;-61
2023/04/01 01:38:02;;;;;;;1.25;0.30;;;19.70;61.40;;;;;;4920549;29;20083;-60
2023/04/01 01:40:28;;;;;;;1.02;0.30;;;19.70;61.40;;;;;;4919676;29;20051;-60
2023/04/01 01:42:55;;;;;;;1.65;0.25;;;19.70;61.40;;;;;;4936159;29;20047;-60
2023/04/01 01:45:21;;;;;;;0.55;0.20;;;19.70;61.30;;;;;;4919123;29;20067;-60
2023/04/01 01:47:47;;;;;;;0.70;0.30;;;19.70;61.40;;;;;;4919397;29;20111;-60
2023/04/01 01:50:13;;;;;;;1.77;0.30;;;19.70;61.40;;;;;;4918162;29;20055;-60
2023/04/01 01:52:39;;;;;;;0.90;0.30;;;19.70;61.40;;;;;;4919641;29;20086;-60
2023/04/01 01:55:27;;;;;;;0.60;0.28;;;19.70;61.30;;;;;;4935254;29;20083;-60
2023/04/01 01:57:52;;;;;;;0.82;0.30;;;19.70;61.30;;;;;;4903629;29;20051;-60
2023/04/01 02:00:18;;;;;;;1.65;0.20;;;19.70;61.40;;;;;;4918596;29;20043;-60
2023/04/01 02:02:45;;;;;;;1.17;0.30;;;19.70;61.30;;;;;;4918965;29;20090;-61
2023/04/01 02:05:11;;;;;;;1.08;0.32;;;19.70;61.30;;;;;;4901402;29;20102;-60
2023/04/01 02:07:37;;;;;;;1.20;0.40;;;19.70;61.30;;;;;;4918645;29;20115;-60
2023/04/01 02:10:03;;;;;;;1.77;0.40;;;19.60;61.20;;;;;;4918501;29;20450;-60
2023/04/01 02:12:29;;;;;;;1.30;0.30;;;19.60;61.30;;;;;;4918252;29;20102;-60
2023/04/01 02:15:13;;;;;;;0.93;0.25;;;19.70;61.30;;;;;;4919015;29;20051;-60
2023/04/01 02:17:42;;;;;;;0.70;0.22;;;19.60;61.20;;;;;;4918938;29;20118;-60
2023/04/01 02:20:14;;;;;;;0.88;0.30;;;19.60;61.30;;;;;;4902021;29;20102;-60
2023/04/01 02:22:45;;;;;;;0.70;0.30;;;19.60;61.30;;;;;;4919313;29;20050;-60
2023/04/01 02:25:12;;;;;;;0.90;0.25;;;19.60;61.20;;;;;;4917866;29;20040;-61
2023/04/01 02:27:38;;;;;;;1.00;0.45;;;19.60;61.20;;;;;;4918775;29;20082;-60
2023/04/01 02:30:05;;;;;;;0.60;0.20;;;19.60;61.30;;;;;;4902542;29;20464;-60
2023/04/01 02:32:30;;;;;;;0.82;0.20;;;19.60;61.30;;;;;;4934937;29;20180;-60
2023/04/01 02:34:56;;;;;;;1.20;0.38;;;19.60;61.20;;;;;;4918582;29;20070;-60
2023/04/01 02:37:21;;;;;;;1.42;0.32;;;19.60;61.20;;;;;;4918182;29;20079;-60
2023/04/01 02:39:47;;;;;;;1.42;0.30;;;19.60;61.20;;;;;;4935147;29;20047;-60
2023/04/01 02:42:13;;;;;;;0.70;0.30;;;19.60;61.20;;;;;;4917894;29;20040;-60
2023/04/01 02:44:39;;;;;;;0.80;0.30;;;19.60;61.30;;;;;;4935562;29;20040;-60
2023/04/01 02:47:04;;;;;;;1.60;0.30;;;19.60;61.20;;;;;;4934359;29;20046;-60
2023/04/01 02:49:30;;;;;;;1.15;0.22;;;19.50;61.20;;;;;;4935007;29;20048;-60
2023/04/01 02:51:56;;;;;;;0.57;0.20;;;19.60;61.20;;;;;;4934584;29;20043;-60
2023/04/01 02:54:21;;;;;;;0.40;0.30;;;19.50;61.20;;;;;;4934549;29;20131;-60
2023/04/01 02:56:47;;;;;;;1.05;0.30;;;19.60;61.20;;;;;;4935123;29;20055;-60
2023/04/01 02:59:12;;;;;;;0.65;0.20;;;19.50;61.20;;;;;;4917683;29;20047;-60
2023/04/01 03:01:38;;;;;;;0.80;0.22;;;19.50;61.10;;;;;;4934864;29;20123;-60
2023/04/01 03:04:04;;;;;;;1.15;0.40;;;19.50;61.10;;;;;;4935141;29;20040;-60
2023/04/01 03:06:30;;;;;;;1.65;0.43;;;19.50;61.10;;;;;;4934884;29;20039;-61
2023/04/01 03:08:55;;;;;;;0.60;0.20;;;19.50;61.10;;;;;;4917635;29;20050;-60
2023/04/01 03:11:21;;;;;;;0.22;0.20;;;19.60;61.20;;;;;;4934534;29;20042;-61
2023/04/01 03:13:46;;;;;;;0.65;0.30;;;19.50;61.20;;;;;;4935311;29;20488;-61
2023/04/01 03:16:12;;;;;;;0.75;0.30;;;19.50;61.20;;;;;;4934219;29;20047;-61
2023/04/01 03:18:38;;;;;;;0.98;0.13;;;19.60;61.20;;;;;;4917686;29;20051;-61
2023/04/01 03:21:20;;;;;;;1.23;0.60;;;19.60;61.20;;;;;;4917326;29;20043;-61
2023/04/01 03:23:46;;;;;;;0.60;0.25;;;19.60;61.20;;;;;;4917974;29;20043;-61
2023/04/01 03:26:11;;;;;;;0.47;0.20;;;19.60;61.20;;;;;;4934596;29;20059;-61
2023/04/01 03:28:37;;;;;;;0.63;0.20;;;19.60;61.20;;;;;;4934807;29;20050;-61
2023/04/01 03:31:03;;;;;;;0.95;0.30;;;19.60;61.20;;;;;;4934698;29;20032;-61
2023/04/01 03:33:28;;;;;;;0.15;0.10;;;19.60;61.20;;;;;;4934826;29;20047;-61
2023/04/01 03:35:54;;;;;;;0.73;0.25;;;19.60;61.20;;;;;;4934156;29;20186;-60
2023/04/01 03:38:20;;;;;;;0.60;0.30;;;19.60;61.20;;;;;;4934655;29;20130;-61
2023/04/01 03:40:45;;;;;;;0.75;0.20;;;19.60;61.20;;;;;;4934846;29;20062;-61
2023/04/01 03:43:11;;;;;;;0.15;0.10;;;19.70;61.20;;;;;;4933977;29;20169;-64
2023/04/01 03:45:52;;;;;;;0.52;0.20;;;19.70;61.10;;;;;;4934825;29;20044;-61
2023/04/01 03:48:18;;;;;;;0.65;0.20;;;19.70;61.10;;;;;;4934589;29;20048;-61
2023/04/01 03:50:44;;;;;;;0.50;0.20;;;19.70;61.10;;;;;;4934363;29;20175;-61
2023/04/01 03:53:09;;;;;;;1.30;0.20;;;19.70;61.10;;;;;;4934209;29;20040;-60
2023/04/01 03:55:38;;;;;;;0.50;0.15;;;19.70;61.10;;;;;;4934940;29;20043;-60
2023/04/01 03:58:04;;;;;;;0.68;0.20;;;19.70;61.10;;;;;;4933878;29;20083;-60
2023/04/01 04:00:30;;;;;;;0.70;0.28;;;19.70;61.10;;;;;;4934984;29;20040;-61
2023/04/01 04:02:56;;;;;;;0.70;0.20;;;19.70;61.00;;;;;;4920869;29;20059;-60
2023/04/01 04:05:23;;;;;;;0.30;0.20;;;19.80;61.10;;;;;;4900348;29;20051;-60
2023/04/01 04:07:48;;;;;;;0.20;0.10;;;19.80;61.10;;;;;;4918700;29;20044;-60
2023/04/01 04:10:14;;;;;;;0.22;0.10;;;19.80;61.00;;;;;;4919167;29;20096;-60
2023/04/01 04:12:40;;;;;;;0.70;0.20;;;19.80;61.00;;;;;;4918215;29;20423;-61
2023/04/01 04:15:06;;;;;;;1.05;0.20;;;19.80;61.00;;;;;;4918827;29;20135;-60
2023/04/01 04:17:32;;;;;;;0.10;0.10;;;19.80;61.00;;;;;;4901970;29;20040;-60
2023/04/01 04:19:57;;;;;;;0.50;0.28;;;19.80;61.00;;;;;;4918294;29;20048;-60
2023/04/01 04:22:23;;;;;;;0.80;0.22;;;19.80;61.00;;;;;;4901892;29;20050;-60
2023/04/01 04:24:48;;;;;;;0.55;0.10;;;19.80;61.00;;;;;;4918501;29;20044;-60
2023/04/01 04:27:14;;;;;;;0.98;0.20;;;19.80;61.00;;;;;;4918328;29;20044;-60
2023/04/01 04:29:39;;;;;;;0.43;0.10;;;19.90;61.00;;;;;;4918831;29;20044;-60
2023/04/01 04:32:05;;;;;;;0.55;0.30;;;19.90;61.00;;;;;;4901023;29;20502;-60
2023/04/01 04:34:31;;;;;;;0.60;0.20;;;19.90;61.00;;;;;;4918848;29;20051;-60
2023/04/01 04:36:57;;;;;;;0.35;0.20;;;19.90;61.00;;;;;;4918407;29;20044;-60
2023/04/01 04:39:22;;;;;;;0.40;0.20;;;19.90;60.90;;;;;;4918017;29;20051;-60
2023/04/01 04:41:48;;;;;;;0.28;0.20;;;19.90;60.90;;;;;;4901668;29;20099;-60
2023/04/01 04:44:13;;;;;;;0.63;0.20;;;19.90;61.00;;;;;;4918259;29;20134;-60
2023/04/01 04:46:39;;;;;;;0.90;0.30;;;19.90;60.90;;;;;;4918326;29;20036;-60
2023/04/01 04:49:05;;;;;;;0.47;0.20;;;19.90;60.90;;;;;;4918284;29;20404;-60
2023/04/01 04:51:33;;;;;;;1.13;0.30;;;19.90;60.90;;;;;;4918418;29;20055;-60
2023/04/01 04:53:59;;;;;;;;;;;19.90;60.90;;;;;;4917994;29;20071;-60
2023/04/01 04:56:25;;;;;;;1.02;0.20;;;19.90;60.90;;;;;;4918182;29;19935;-60
2023/04/01 04:58:51;;;;;;;0.43;0.13;;;19.90;60.90;;;;;;4918469;29;20070;-60
2023/04/01 05:01:17;;;;;;;1.08;0.20;;;20.00;61.00;;;;;;4917477;29;20048;-60
2023/04/01 05:03:43;;;;;;;0.73;0.30;;;20.00;60.90;;;;;;4920168;29;20054;-60
2023/04/01 05:06:09;;;;;;;1.23;0.30;;;20.00;61.00;;;;;;4936728;29;20514;-60
2023/04/01 05:08:35;;;;;;;1.20;0.30;;;20.00;61.00;;;;;;4901611;29;20059;-59
2023/04/01 05:11:01;;;;;;;0.20;0.20;;;20.00;60.90;;;;;;4917431;29;20048;-60
2023/04/01 05:13:27;;;;;;;0.25;0.20;;;20.00;61.00;;;;;;4917033;29;20146;-60
2023/04/01 05:15:52;;;;;;;0.52;0.15;;;20.00;61.00;;;;;;4917565;29;20514;-60
2023/04/01 05:18:18;;;;;;;0.13;0.10;;;20.00;60.90;;;;;;4917760;29;20135;-60
2023/04/01 05:20:50;;;;;;;0.40;0.20;;;20.00;60.90;;;;;;4918195;29;20036;-60
2023/04/01 05:23:16;;;;;;;0.60;0.30;;;20.00;60.90;;;;;;4917045;29;20048;-60
2023/04/01 05:25:42;;;;;;;0.77;0.20;;;20.00;60.90;;;;;;4917596;29;20051;-60
2023/04/01 05:28:08;;;;;;;0.22;0.10;;;20.00;60.90;;;;;;4900113;29;20048;-60
2023/04/01 05:30:33;;;;;;;0.20;0.10;;;20.00;60.90;;;;;;4918045;29;20055;-60
2023/04/01 05:32:59;;;;;;;0.40;0.20;;;20.00;60.90;;;;;;4917539;29;20119;-60
2023/04/01 05:35:25;;;;;;;0.77;0.10;;;20.00;60.90;;;;;;4917228;29;20052;-60
2023/04/01 05:37:50;;;;;;;0.20;0.13;;;20.00;60.90;;;;;;4917638;29;20066;-60
2023/04/01 05:40:16;;;;;;;0.63;0.20;;;20.00;60.90;;;;;;4917072;29;20054;-60
2023/04/01 05:42:41;;;;;;;0.35;0.10;;;20.00;60.90;;;;;;4917246;29;20055;-60
2023/04/01 05:45:08;;;;;;;0.50;0.20;;;20.00;60.90;;;;;;4899990;29;20048;-60
2023/04/01 05:47:34;;;;;;;0.40;0.20;;;20.00;60.90;;;;;;4900394;29;20158;-60
2023/04/01 05:49:59;;;;;;;0.57;0.30;;;20.00;60.90;;;;;;4923357;29;20073;-60
2023/04/01 05:52:25;;;;;;;0.60;0.30;;;20.00;60.90;;;;;;4936066;29;20127;-60
2023/04/01 05:54:51;;;;;;;0.40;0.13;;;20.00;61.00;;;;;;4935854;29;20122;-60
2023/04/01 05:57:16;;;;;;;0.52;0.20;;;20.00;60.90;;;;;;4930257;29;20052;-60
2023/04/01 05:59:42;;;;;;;0.40;0.20;;;20.00;60.90;;;;;;4917475;29;20135;-61
2023/04/01 06:02:09;;;;;;;0.63;0.20;;;20.00;60.90;;;;;;4916910;29;20032;-60
2023/04/01 06:04:38;;;;;;;0.40;0.20;;;20.00;61.00;;;;;;4900055;29;20103;-60
2023/04/01 06:07:13;;;;;;;0.65;0.20;;;20.00;61.00;;;;;;4916863;29;20048;-60
2023/04/01 06:09:39;;;;;;;0.70;0.20;;;20.00;61.00;;;;;;4917170;29;20051;-59
2023/04/01 06:12:29;;;;;;;0.65;0.20;;;20.00;61.00;;;;;;4916138;29;20062;-62
2023/04/01 06:15:13;;;;;;;1.52;0.30;;;20.00;60.90;;;;;;4917075;29;20086;-61
2023/04/01 06:18:11;;;;;;;1.63;0.30;;;19.90;60.80;;;;;;4899438;29;20052;-61
2023/04/01 06:20:49;;;;;;;3.72;0.32;;;19.90;60.90;;;;;;4902945;29;20044;-61
2023/04/01 06:23:57;;;;;;;4.47;0.30;;;19.90;60.90;;;;;;4900701;29;20052;-60
2023/04/01 06:26:39;;;;;;;3.55;0.30;;;19.90;61.10;;;;;;4902015;29;20135;-60
2023/04/01 06:29:26;;;;;;;0.75;0.25;;;20.00;61.40;;;;;;4899394;29;20492;-60
2023/04/01 06:32:14;;;;;;;0.43;0.20;;;20.00;61.40;;;;;;4916481;29;20044;-60
2023/04/01 06:34:46;;;;;;;3.15;0.30;;;20.00;61.40;;;;;;4901966;29;20048;-60
2023/04/01 06:37:39;;;;;;;1.10;0.30;;;20.00;61.40;;;;;;4901555;29;20412;-62
2023/04/01 06:40:16;;;;;;;2.03;0.25;;;19.90;61.50;;;;;;4934694;29;20051;-56
2023/04/01 06:42:45;;;;;;;2.50;0.30;;;20.00;61.60;;;;;;4933461;29;20036;-61
2023/04/01 06:45:23;;;;;;;0.88;0.40;;;20.00;61.70;;;;;;4917934;29;20043;-61
2023/04/01 06:47:49;;;;;;;4.80;0.52;;;20.00;61.80;;;;;;4933744;29;20488;-61
2023/04/01 06:50:25;;;;;;;1.73;0.20;;;20.00;61.90;;;;;;4917288;29;20050;-60
2023/04/01 06:52:53;;;;;;;4.72;0.60;;;20.00;62.00;;;;;;4928055;29;20044;-61
2023/04/01 06:55:41;;;;;;;3.40;0.30;;;20.00;62.00;;;;;;4915937;29;20051;-61
2023/04/01 06:58:27;;;;;;;4.72;0.30;;;20.00;62.20;;;;;;4916044;29;20044;-62
2023/04/01 07:00:54;;;;;;;1.02;0.30;;;20.10;62.30;;;;;;4885888;29;20055;-62
2023/04/01 07:03:32;;;;;;;2.15;0.40;;;20.00;62.20;;;;;;4898982;29;20040;-63
2023/04/01 07:06:00;;;;;;;1.88;0.40;;;20.10;62.40;;;;;;4899596;29;20488;-62
2023/04/01 07:08:27;;;;;;;1.98;0.40;;;20.10;62.40;;;;;;4899089;29;20083;-62
2023/04/01 07:11:02;;;;;;;4.72;0.30;;;20.10;62.40;;;;;;4916081;29;20071;-61
2023/04/01 07:13:49;;;;;;;0.82;0.30;;;20.10;62.50;;;;;;4915450;29;20628;-62
2023/04/01 07:16:16;;;;;;;2.63;0.30;;;20.10;62.50;;;;;;4915330;29;20056;-61
2023/04/01 07:18:47;;;;;;;2.83;0.30;;;20.10;62.50;;;;;;4915952;29;20060;-62
2023/04/01 07:21:23;;;;;;;3.85;0.40;;;20.10;62.60;;;;;;4899364;29;20044;-61
2023/04/01 07:23:49;;;;;;;2.17;0.43;;;20.20;62.60;;;;;;4899575;29;20370;-62
2023/04/01 07:26:20;;;;;;;2.75;0.40;;;20.20;62.70;;;;;;4898636;29;20076;-62
2023/04/01 07:28:46;;;;;;;3.78;0.50;;;20.20;62.70;;;;;;4905223;29;20549;-62
2023/04/01 07:31:20;;;;;;;3.85;0.30;;;20.20;62.70;;;;;;4917488;29;20131;-59
2023/04/01 07:34:12;;;;;;;1.08;0.40;;;20.20;62.70;;;;;;4917448;29;20512;-60
2023/04/01 07:36:42;;;;;;;2.33;0.40;;;20.20;62.50;;;;;;4935500;29;20053;-60
2023/04/01 07:39:30;;;;;;;2.38;0.40;;;20.20;62.50;;;;;;4906981;29;20060;-61
2023/04/01 07:42:15;;;;;;;1.33;0.47;;;20.20;62.50;;;;;;4913890;29;20044;-61
2023/04/01 07:44:59;;;;;;;4.10;0.40;;;20.20;62.50;;;;;;4907392;29;20082;-61
2023/04/01 07:47:28;;;;;;;1.00;0.32;;;20.20;62.40;;;;;;4921119;29;20048;-61
2023/04/01 07:50:07;;;;;;;2.75;0.30;;;20.20;62.40;;;;;;4937994;29;20574;-60
2023/04/01 07:52:41;;;;;;;4.18;0.60;;;20.20;62.30;;;;;;4921235;29;20094;-61
2023/04/01 07:55:32;;;;;;;1.85;0.30;;;20.20;62.30;;;;;;4938310;29;20103;-61
2023/04/01 07:58:04;;;;;;;1.08;0.40;;;20.20;62.20;;;;;;4907365;29;20040;-60
2023/04/01 08:00:55;;;;;;;8.18;0.50;;;20.20;62.20;;;;;;4938381;29;20048;-62
2023/04/01 08:03:57;;;;;;;3.50;0.50;;;20.20;62.20;;;;;;4914091;29;20044;-62
2023/04/01 08:06:37;;;;;;;3.35;0.40;;;20.30;62.40;;;;;;4904905;29;20070;-62
2023/04/01 08:09:25;;;;;;;4.93;0.80;;;20.30;62.50;;;;;;4886828;29;20489;-62
2023/04/01 08:12:00;;;;;;;3.00;0.60;;;20.30;62.50;;;;;;4888444;29;20504;-62
2023/04/01 08:14:36;;;;;;;2.85;0.80;;;20.30;62.60;;;;;;4901936;29;20107;-62
2023/04/01 08:17:01;;;;;;;3.08;0.40;;;20.30;62.70;;;;;;4918298;29;20056;-61
2023/04/01 08:19:45;;;;;;;5.63;0.90;;;20.30;62.70;;;;;;4901944;29;20084;-63
2023/04/01 08:22:29;;;;;;;2.70;0.70;;;20.30;62.70;;;;;;4918728;29;20084;-64
2023/04/01 08:24:57;;;;;;;1.60;0.50;;;20.30;62.60;;;;;;4902840;29;20044;-65
2023/04/01 08:27:31;;;;;;;2.35;0.50;;;20.30;62.70;;;;;;4907724;29;20131;-61
2023/04/01 08:29:58;;;;;;;3.53;0.60;;;20.30;62.60;;;;;;4906278;29;20040;-62
2023/04/01 08:32:31;;;;;;;2.17;0.68;;;20.30;62.70;;;;;;4936752;29;20043;-63
2023/04/01 08:35:21;;;;;;;5.10;0.68;;;20.30;62.80;;;;;;4918271;29;20044;-64
2023/04/01 08:37:47;;;;;;;4.75;0.63;;;20.40;62.80;;;;;;4936999;29;20102;-63
2023/04/01 08:40:31;;;;;;;3.83;0.70;;;20.40;62.80;;;;;;4916691;29;20492;-64
2023/04/01 08:43:11;;;;;;;0.65;0.38;;;20.40;62.80;;;;;;4901406;29;20044;-63
2023/04/01 08:45:44;;;;;;;1.50;0.60;;;20.40;62.80;;;;;;4901950;29;20516;-62
2023/04/01 08:48:27;;;;;;;3.85;0.60;;;20.40;62.80;;;;;;4917430;29;20057;-63
2023/04/01 08:51:04;;;;;;;4.35;0.50;;;20.40;62.70;;;;;;4886836;29;20056;-62
2023/04/01 08:54:11;;;;;;;2.75;0.50;;;20.40;62.80;;;;;;4917689;29;20052;-60
2023/04/01 08:56:46;;;;;;;3.60;0.60;;;20.40;63.00;;;;;;4917498;29;20044;-63
2023/04/01 08:59:23;;;;;;;3.45;0.47;;;20.40;62.90;;;;;;4901661;29;20052;-63
2023/04/01 09:02:22;;;;;;;1.23;0.50;;;20.40;62.80;;;;;;4901813;29;20059;-62
2023/04/01 09:05:11;;;;;;;3.38;0.45;;;20.40;62.80;;;;;;4901384;29;20040;-61
2023/04/01 09:07:49;;;;;;;1.92;0.40;;;20.40;62.90;;;;;;4903538;29;20130;-61
2023/04/01 09:10:46;;;;;;;0.90;0.40;;;20.40;63.50;;;;;;4917844;29;20044;-62
2023/04/01 09:13:50;;;;;;;1.30;0.43;;;20.40;62.80;;;;;;4902699;29;20115;-60
2023/04/01 09:16:41;;;;;;;3.05;0.40;;;20.40;62.90;;;;;;4900629;29;20327;-62
2023/04/01 09:19:31;;;;;;;3.67;0.50;;;20.40;62.90;;;;;;4902449;29;20126;-62
2023/04/01 09:22:18;;;;;;;2.85;0.40;;;20.40;63.00;;;;;;4900360;29;20103;-62
2023/04/01 09:24:59;;;;;;;2.35;0.40;;;20.40;62.90;;;;;;4917806;29;20047;-63
2023/04/01 09:27:57;;;;;;;1.38;0.40;;;20.40;62.90;;;;;;4900712;29;20043;-63
2023/04/01 09:30:32;;;;;;;;;;;20.40;63.00;;;;;;4918427;29;20048;-63
2023/04/01 09:33:00;;;;;;;4.00;0.50;;;20.40;62.80;;;;;;4923482;29;20433;-63
2023/04/01 09:35:48;;;;;;;2.63;0.65;;;20.30;62.80;;;;;;4935700;29;20154;-63
2023/04/01 09:38:20;;;;;;;2.97;0.60;;;20.40;62.80;;;;;;4926418;29;20076;-62
2023/04/01 09:41:17;;;;;;;1.08;0.43;;;20.40;62.90;;;;;;4928304;29;20043;-62
2023/04/01 09:44:03;;;;;;;;;;;20.40;62.90;;;;;;4906003;29;20136;-60
2023/04/01 09:46:47;;;;;;;4.32;1.13;;;20.30;62.80;;;;;;4934698;29;19922;-62
2023/04/01 09:49:25;;;;;;;5.07;1.17;;;20.30;63.00;;;;;;4905751;29;20052;-63
2023/04/01 09:51:59;;;;;;;5.97;1.15;;;20.40;63.00;;;;;;4899621;29;20052;-62
2023/04/01 09:54:36;;;;;;;5.55;1.15;;;20.40;63.00;;;;;;4916977;29;20063;-63
2023/04/01 09:57:17;;;;;;;11.85;1.60;;;20.40;63.00;;;;;;4916742;29;20052;-64
2023/04/01 10:00:07;;;;;;;8.30;1.73;;;20.30;63.00;;;;;;4884229;29;20048;-66
2023/04/01 10:02:53;;;;;;;4.53;1.40;;;20.30;63.00;;;;;;4916718;29;20048;-63
2023/04/01 10:05:36;;;;;;;5.18;1.70;;;20.30;62.90;;;;;;4916804;29;20047;-62
2023/04/01 10:08:18;;;;;;;4.00;1.55;;;20.30;62.90;;;;;;4900730;29;20104;-63
2023/04/01 10:10:46;;;;;;;9.32;1.90;;;20.30;62.90;;;;;;4919713;29;20044;-63
2023/04/01 10:13:14;;;;;;;;;;;20.30;62.90;;;;;;4935304;29;20060;-63
2023/04/01 10:15:40;;;;;;;6.10;2.00;;;20.30;62.80;;;;;;4918978;29;19922;-63
2023/04/01 10:18:24;;;;;;;7.00;1.67;;;20.30;62.80;;;;;;4934728;29;20095;-63
2023/04/01 10:21:18;;;;;;;7.53;2.05;;;20.30;62.80;;;;;;4935823;29;20087;-63
2023/04/01 10:24:16;;;;;;;5.38;1.63;;;20.30;62.80;;;;;;4921102;29;20548;-63
2023/04/01 10:26:45;;;;;;;4.20;1.63;;;20.30;62.80;;;;;;4905158;29;20079;-62
2023/04/01 10:29:26;;;;;;;3.67;1.40;;;20.30;62.80;;;;;;4918294;29;20047;-62
2023/04/01 10:32:30;;;;;;;5.18;1.80;;;20.30;62.80;;;;;;4934865;29;20059;-62
2023/04/01 10:35:26;;;;;;;5.60;1.50;;;20.30;62.70;;;;;;4918815;29;20051;-63
2023/04/01 10:37:58;;;;;;;6.63;1.48;;;20.30;62.80;;;;;;4903450;29;20114;-63
2023/04/01 10:40:31;;;;;;;4.82;1.70;;;20.30;62.80;;;;;;4935356;29;20124;-63
2023/04/01 10:43:11;;;;;;;8.60;1.67;;;20.30;62.80;;;;;;4915015;29;20052;-62
2023/04/01 10:45:47;;;;;;;8.50;1.95;;;20.30;62.90;;;;;;4930890;29;20040;-63
2023/04/01 10:48:21;;;;;;;8.43;1.77;;;20.30;62.90;;;;;;4932197;29;20043;-63
2023/04/01 10:51:29;;;;;;;5.70;1.52;;;20.30;63.00;;;;;;4914968;29;20040;-63
2023/04/01 10:54:09;;;;;;;9.32;1.52;;;20.30;63.10;;;;;;4872787;29;20056;-63
2023/04/01 10:57:15;;;;;;;6.28;1.30;;;20.30;62.90;;;;;;4905239;29;20531;-63
2023/04/01 10:59:50;;;;;;;7.20;1.52;;;20.30;63.00;;;;;;4894523;29;20048;-63
2023/04/01 11:02:53;;;;;;;4.57;1.52;;;20.30;63.00;;;;;;4918420;29;20051;-64
2023/04/01 11:05:46;;;;;;;7.60;1.40;;;20.30;63.10;;;;;;4934901;29;20127;-64
2023/04/01 11:08:26;;;;;;;6.57;1.33;;;20.30;62.90;;;;;;4935138;29;20048;-63
2023/04/01 11:11:19;;;;;;;3.58;1.50;;;20.30;62.70;;;;;;4918389;29;20275;-63
2023/04/01 11:13:53;;;;;;;5.53;1.45;;;20.30;62.40;;;;;;4921013;29;20567;-64
2023/04/01 11:16:50;;;;;;;4.88;1.48;;;20.30;62.50;;;;;;4920721;29;20075;-64
2023/04/01 11:19:28;;;;;;;3.75;1.30;;;20.30;62.40;;;;;;4921548;29;20044;-64
2023/04/01 11:21:56;;;;;;;5.10;1.38;;;20.30;62.50;;;;;;4921263;29;20047;-63
2023/04/01 11:24:34;;;;;;;6.00;1.40;;;20.30;62.50;;;;;;4905996;29;20054;-63
2023/04/01 11:27:42;;;;;;;4.68;1.10;;;20.20;62.40;;;;;;4905413;29;20131;-64
2023/04/01 11:30:07;;;;;;;2.75;0.95;;;20.30;62.40;;;;;;4937542;29;20059;-64
2023/04/01 11:33:00;;;;;;;5.82;1.20;;;20.30;62.50;;;;;;4922157;29;20052;-64
2023/04/01 11:35:38;;;;;;;5.43;1.73;;;20.30;62.40;;;;;;4921377;29;20048;-64
2023/04/01 11:38:07;;;;;;;3.70;1.08;;;20.30;62.40;;;;;;4921508;29;20518;-64
2023/04/01 11:40:33;;;;;;;5.30;1.60;;;20.30;62.40;;;;;;4938545;29;20059;-64
2023/04/01 11:43:28;;;;;;;4.50;1.20;;;20.30;62.40;;;;;;4938099;29;20436;-63
2023/04/01 11:46:12;;;;;;;5.53;1.23;;;20.30;62.30;;;;;;4903540;29;20048;-64
2023/04/01 11:48:47;;;;;;;4.20;1.42;;;20.30;62.40;;;;;;4918175;29;20616;-63
2023/04/01 11:51:26;;;;;;;3.58;1.10;;;20.30;62.40;;;;;;4903118;29;20045;-64
2023/04/01 11:54:16;;;;;;;3.75;1.17;;;20.30;62.40;;;;;;4902698;29;20067;-64
2023/04/01 11:57:10;;;;;;;5.65;1.40;;;20.30;62.40;;;;;;4904276;29;20087;-63
2023/04/01 11:59:59;;;;;;;2.22;1.00;;;20.30;62.40;;;;;;4919155;29;20408;-64
2023/04/01 12:02:45;;;;;;;2.47;1.23;;;20.30;62.30;;;;;;4902148;29;20045;-64
2023/04/01 12:05:29;;;;;;;3.92;1.25;;;20.30;62.30;;;;;;4902034;29;20444;-64
2023/04/01 12:08:15;;;;;;;2.60;1.13;;;20.30;62.30;;;;;;4919155;29;20460;-64
2023/04/01 12:10:56;;;;;;;3.92;1.00;;;20.30;62.20;;;;;;4903360;29;20044;-64
2023/04/01 12:13:53;;;;;;;3.90;1.10;;;20.30;62.30;;;;;;4918617;29;20115;-64
2023/04/01 12:16:28;;;;;;;4.43;1.00;;;20.30;62.20;;;;;;4918316;29;20499;-64
2023/04/01 12:19:31;;;;;;;4.97;1.20;;;20.30;62.20;;;;;;4918887;29;20502;-64
2023/04/01 12:22:03;;;;;;;2.92;1.08;;;20.30;62.10;;;;;;4919007;29;20044;-64
2023/04/01 12:24:47;;;;;;;4.03;0.90;;;20.30;62.20;;;;;;4886201;29;20523;-65
2023/04/01 12:27:37;;;;;;;2.17;0.80;;;20.30;62.10;;;;;;4918561;29;20099;-64
2023/04/01 12:30:15;;;;;;;3.72;0.90;;;20.30;62.70;;;;;;4901239;29;20051;-64
2023/04/01 12:33:00;;;;;;;3.80;0.98;;;20.30;62.10;;;;;;4902097;29;20041;-64
2023/04/01 12:35:52;;;;;;;1.88;0.93;;;20.30;62.10;;;;;;4903215;29;20476;-64
2023/04/01 12:38:39;;;;;;;2.53;0.98;;;20.30;62.00;;;;;;4885355;29;20052;-64
2023/04/01 12:41:33;;;;;;;3.67;1.38;;;20.30;62.00;;;;;;4918160;29;20059;-64
2023/04/01 12:44:20;;;;;;;3.83;1.00;;;20.30;62.00;;;;;;4917800;29;20432;-64
2023/04/01 12:47:07;;;;;;;2.43;0.97;;;20.30;61.90;;;;;;4886260;29;20048;-64
2023/04/01 12:49:51;;;;;;;1.80;0.80;;;20.30;62.00;;;;;;4918394;29;20052;-64
2023/04/01 12:52:47;;;;;;;2.53;1.00;;;20.30;61.90;;;;;;4901005;29;20051;-64
2023/04/01 12:55:37;;;;;;;2.67;0.98;;;20.40;61.90;;;;;;4917858;29;20480;-64
2023/04/01 12:58:24;;;;;;;2.35;0.95;;;20.30;61.80;;;;;;4901811;29;20047;-64
2023/04/01 13:01:27;;;;;;;2.63;0.80;;;20.40;61.90;;;;;;4918533;29;20097;-64
2023/04/01 13:04:30;;;;;;;1.50;0.88;;;20.40;61.90;;;;;;4901432;29;20405;-64
2023/04/01 13:07:17;;;;;;;2.70;0.88;;;20.40;61.80;;;;;;4917732;29;20385;-64
2023/04/01 13:10:13;;;;;;;2.00;0.82;;;20.40;61.80;;;;;;4901271;29;20048;-64
2023/04/01 13:13:15;;;;;;;2.38;1.17;;;20.40;61.70;;;;;;4917704;29;20066;-64
2023/04/01 13:15:46;;;;;;;1.27;0.70;;;20.40;61.70;;;;;;4900960;29;20052;-64
2023/04/01 13:18:23;;;;;;;4.10;0.80;;;20.40;61.70;;;;;;4901590;29;20048;-63
2023/04/01 13:20:57;;;;;;;1.73;0.70;;;20.40;61.60;;;;;;4917506;29;20134;-64
2023/04/01 13:23:42;;;;;;;1.35;0.70;;;20.40;61.60;;;;;;4901362;29;20400;-64
2023/04/01 13:26:08;;;;;;;1.38;0.73;;;20.40;61.60;;;;;;4917810;29;20052;-64
2023/04/01 13:28:40;;;;;;;2.45;0.90;;;20.40;61.60;;;;;;4917375;29;20071;-64
2023/04/01 13:31:24;;;;;;;3.25;0.73;;;20.40;61.60;;;;;;4900274;29;20048;-64